RPC1942 RPUO-RPUT
Flight info
| Callsign | RPC1942 |
|---|---|
| Flight time | 1h 5m |
| Altitude | 8000 |
| Route | 202624N1215745E DCT 191529N1213028E/N0179F070 |
| Aircraft | C208/L-SDFGR/C |
Departure
| Time | 2026-04-28 11:16 |
|---|---|
| Airport | Basco Airport (RPUO) |
Arrival
| Time | 2026-04-28 12:22 |
|---|---|
| Airport | Tuguegarao Airport (RPUT) |
| Time | Latitude | Longitude | Altitude | Speed | Heading |
|---|---|---|---|---|---|
| 2026-04-28 11:03 | 20.44938 | 121.97597 | 165 ft | 0 kts | 19° |
| 2026-04-28 11:12 | 20.44951 | 121.97602 | 166 ft | 0 kts | 32° |
| 2026-04-28 11:13 | 20.44907 | 121.97628 | 166 ft | 14 kts | 146° |
| 2026-04-28 11:13 | 20.44961 | 121.97740 | 179 ft | 24 kts | 57° |
| 2026-04-28 11:13 | 20.45070 | 121.97907 | 206 ft | 31 kts | 55° |
| 2026-04-28 11:14 | 20.45201 | 121.98113 | 231 ft | 36 kts | 57° |
| 2026-04-28 11:14 | 20.45339 | 121.98310 | 265 ft | 23 kts | 62° |
| 2026-04-28 11:14 | 20.45380 | 121.98392 | 278 ft | 15 kts | 60° |
| 2026-04-28 11:14 | 20.45431 | 121.98489 | 292 ft | 4 kts | 151° |
| 2026-04-28 11:15 | 20.45421 | 121.98448 | 290 ft | 0 kts | 226° |
| 2026-04-28 11:15 | 20.45421 | 121.98447 | 290 ft | 2 kts | 226° |
| 2026-04-28 11:15 | 20.45252 | 121.98194 | 249 ft | 89 kts | 229° |
| 2026-04-28 11:16 | 20.44897 | 121.97520 | 490 ft | 111 kts | 231° |
| 2026-04-28 11:16 | 20.44406 | 121.96836 | 636 ft | 131 kts | 227° |
| 2026-04-28 11:16 | 20.43734 | 121.96162 | 792 ft | 137 kts | 205° |
| 2026-04-28 11:16 | 20.42830 | 121.95787 | 987 ft | 139 kts | 195° |
| 2026-04-28 11:17 | 20.41949 | 121.95457 | 1277 ft | 125 kts | 195° |
| 2026-04-28 11:17 | 20.41123 | 121.95139 | 1589 ft | 124 kts | 192° |
| 2026-04-28 11:17 | 20.40301 | 121.94870 | 1896 ft | 124 kts | 188° |
| 2026-04-28 11:17 | 20.39479 | 121.94575 | 2200 ft | 124 kts | 191° |
| 2026-04-28 11:18 | 20.38666 | 121.94267 | 2508 ft | 124 kts | 189° |
| 2026-04-28 11:18 | 20.37861 | 121.93956 | 2810 ft | 122 kts | 190° |
| 2026-04-28 11:18 | 20.37071 | 121.93658 | 3111 ft | 120 kts | 191° |
| 2026-04-28 11:18 | 20.36546 | 121.93456 | 3312 ft | 122 kts | 192° |
| 2026-04-28 11:19 | 20.35738 | 121.93142 | 3607 ft | 124 kts | 192° |
| 2026-04-28 11:19 | 20.34925 | 121.92831 | 3906 ft | 124 kts | 193° |
| 2026-04-28 11:19 | 20.34131 | 121.92528 | 4197 ft | 122 kts | 193° |
| 2026-04-28 11:19 | 20.33072 | 121.92153 | 4580 ft | 120 kts | 195° |
| 2026-04-28 11:20 | 20.32553 | 121.91943 | 4774 ft | 120 kts | 195° |
| 2026-04-28 11:20 | 20.31506 | 121.91540 | 5150 ft | 120 kts | 194° |
| 2026-04-28 11:20 | 20.30987 | 121.91348 | 5338 ft | 119 kts | 191° |
| 2026-04-28 11:20 | 20.29932 | 121.90982 | 5689 ft | 118 kts | 191° |
| 2026-04-28 11:21 | 20.29155 | 121.90714 | 5951 ft | 117 kts | 189° |
| 2026-04-28 11:21 | 20.28378 | 121.90472 | 6197 ft | 118 kts | 188° |
| 2026-04-28 11:21 | 20.27894 | 121.90187 | 6313 ft | 120 kts | 210° |
| 2026-04-28 11:21 | 20.27142 | 121.89845 | 6617 ft | 117 kts | 197° |
| 2026-04-28 11:22 | 20.26379 | 121.89529 | 6898 ft | 117 kts | 198° |
| 2026-04-28 11:22 | 20.25376 | 121.89125 | 7301 ft | 115 kts | 198° |
| 2026-04-28 11:22 | 20.24875 | 121.88929 | 7493 ft | 115 kts | 198° |
| 2026-04-28 11:22 | 20.24121 | 121.88635 | 7794 ft | 116 kts | 198° |
| 2026-04-28 11:23 | 20.23356 | 121.88340 | 8022 ft | 122 kts | 199° |
| 2026-04-28 11:23 | 20.22505 | 121.88000 | 8028 ft | 138 kts | 200° |
| 2026-04-28 11:23 | 20.21574 | 121.87627 | 8036 ft | 147 kts | 201° |
| 2026-04-28 11:23 | 20.20591 | 121.87237 | 8030 ft | 153 kts | 201° |
| 2026-04-28 11:24 | 20.19581 | 121.86842 | 8024 ft | 156 kts | 200° |
| 2026-04-28 11:24 | 20.18556 | 121.86443 | 8030 ft | 157 kts | 200° |
| 2026-04-28 11:24 | 20.17527 | 121.86044 | 8024 ft | 158 kts | 200° |
| 2026-04-28 11:24 | 20.16496 | 121.85641 | 8024 ft | 158 kts | 202° |
| 2026-04-28 11:25 | 20.15467 | 121.85214 | 8021 ft | 159 kts | 202° |
| 2026-04-28 11:25 | 20.14416 | 121.84800 | 8020 ft | 162 kts | 201° |
| 2026-04-28 11:25 | 20.13351 | 121.84386 | 8022 ft | 163 kts | 201° |
| 2026-04-28 11:25 | 20.12278 | 121.83970 | 8025 ft | 164 kts | 202° |
| 2026-04-28 11:26 | 20.11219 | 121.83557 | 8021 ft | 164 kts | 201° |
| 2026-04-28 11:26 | 20.10143 | 121.83144 | 8022 ft | 165 kts | 201° |
| 2026-04-28 11:26 | 20.09058 | 121.82727 | 8024 ft | 166 kts | 201° |
| 2026-04-28 11:26 | 20.07976 | 121.82308 | 8024 ft | 165 kts | 201° |
| 2026-04-28 11:27 | 20.06904 | 121.81891 | 8024 ft | 163 kts | 202° |
| 2026-04-28 11:27 | 20.05841 | 121.81480 | 8022 ft | 162 kts | 201° |
| 2026-04-28 11:27 | 20.04772 | 121.81073 | 8023 ft | 163 kts | 201° |
| 2026-04-28 11:27 | 20.03713 | 121.80663 | 8020 ft | 161 kts | 201° |
| 2026-04-28 11:28 | 20.02664 | 121.80257 | 8025 ft | 161 kts | 201° |
| 2026-04-28 11:28 | 20.01614 | 121.79854 | 8022 ft | 161 kts | 201° |
| 2026-04-28 11:28 | 20.00564 | 121.79452 | 8024 ft | 163 kts | 202° |
| 2026-04-28 11:28 | 19.99489 | 121.79035 | 8026 ft | 166 kts | 202° |
| 2026-04-28 11:29 | 19.98400 | 121.78612 | 8024 ft | 166 kts | 202° |
| 2026-04-28 11:29 | 19.97312 | 121.78191 | 8021 ft | 167 kts | 201° |
| 2026-04-28 11:29 | 19.96206 | 121.77768 | 8018 ft | 170 kts | 201° |
| 2026-04-28 11:29 | 19.95090 | 121.77337 | 8022 ft | 171 kts | 202° |
| 2026-04-28 11:30 | 19.93981 | 121.76908 | 8020 ft | 172 kts | 202° |
| 2026-04-28 11:30 | 19.91720 | 121.76038 | 8021 ft | 173 kts | 201° |
| 2026-04-28 11:30 | 19.90587 | 121.75600 | 8024 ft | 174 kts | 201° |
| 2026-04-28 11:31 | 19.89448 | 121.75161 | 8025 ft | 174 kts | 201° |
| 2026-04-28 11:31 | 19.88310 | 121.74723 | 8025 ft | 174 kts | 201° |
| 2026-04-28 11:31 | 19.87172 | 121.74285 | 8022 ft | 174 kts | 201° |
| 2026-04-28 11:31 | 19.86049 | 121.73853 | 8021 ft | 174 kts | 201° |
| 2026-04-28 11:32 | 19.84909 | 121.73414 | 8021 ft | 174 kts | 201° |
| 2026-04-28 11:32 | 19.83772 | 121.72976 | 8022 ft | 174 kts | 201° |
| 2026-04-28 11:32 | 19.82631 | 121.72537 | 8020 ft | 174 kts | 202° |
| 2026-04-28 11:32 | 19.81492 | 121.72100 | 8022 ft | 174 kts | 202° |
| 2026-04-28 11:33 | 19.80354 | 121.71662 | 8022 ft | 174 kts | 202° |
| 2026-04-28 11:33 | 19.79210 | 121.71222 | 8015 ft | 174 kts | 201° |
| 2026-04-28 11:33 | 19.78071 | 121.70785 | 8022 ft | 173 kts | 201° |
| 2026-04-28 11:33 | 19.76934 | 121.70348 | 8021 ft | 173 kts | 201° |
| 2026-04-28 11:34 | 19.75815 | 121.69918 | 8022 ft | 173 kts | 202° |
| 2026-04-28 11:34 | 19.74683 | 121.69482 | 8022 ft | 173 kts | 202° |
| 2026-04-28 11:34 | 19.73558 | 121.69047 | 8019 ft | 171 kts | 202° |
| 2026-04-28 11:34 | 19.72440 | 121.68618 | 8022 ft | 170 kts | 202° |
| 2026-04-28 11:35 | 19.71326 | 121.68194 | 8020 ft | 170 kts | 202° |
| 2026-04-28 11:35 | 19.70214 | 121.67765 | 8015 ft | 169 kts | 202° |
| 2026-04-28 11:35 | 19.69107 | 121.67344 | 8019 ft | 169 kts | 201° |
| 2026-04-28 11:35 | 19.67993 | 121.66917 | 8022 ft | 171 kts | 201° |
| 2026-04-28 11:36 | 19.66870 | 121.66484 | 8020 ft | 171 kts | 201° |
| 2026-04-28 11:36 | 19.65745 | 121.66053 | 8022 ft | 172 kts | 202° |
| 2026-04-28 11:36 | 19.64626 | 121.65620 | 8024 ft | 170 kts | 202° |
| 2026-04-28 11:36 | 19.63513 | 121.65193 | 8022 ft | 169 kts | 201° |
| 2026-04-28 11:37 | 19.62403 | 121.64776 | 8019 ft | 169 kts | 200° |
| 2026-04-28 11:37 | 19.61286 | 121.64367 | 8021 ft | 169 kts | 200° |
| 2026-04-28 11:37 | 19.60185 | 121.63953 | 8020 ft | 170 kts | 200° |
| 2026-04-28 11:37 | 19.59076 | 121.63525 | 8022 ft | 170 kts | 201° |
| 2026-04-28 11:38 | 19.57963 | 121.63096 | 8019 ft | 170 kts | 201° |
| 2026-04-28 11:38 | 19.56856 | 121.62672 | 8019 ft | 169 kts | 200° |
| 2026-04-28 11:38 | 19.55741 | 121.62248 | 8019 ft | 172 kts | 200° |
| 2026-04-28 11:38 | 19.54611 | 121.61814 | 8019 ft | 173 kts | 200° |
| 2026-04-28 11:39 | 19.53479 | 121.61379 | 8020 ft | 173 kts | 200° |
| 2026-04-28 11:39 | 19.52344 | 121.60943 | 8021 ft | 174 kts | 200° |
| 2026-04-28 11:39 | 19.51203 | 121.60507 | 8023 ft | 174 kts | 200° |
| 2026-04-28 11:39 | 19.50068 | 121.60094 | 8021 ft | 172 kts | 198° |
| 2026-04-28 11:40 | 19.48930 | 121.59680 | 8019 ft | 173 kts | 199° |
| 2026-04-28 11:40 | 19.47808 | 121.59254 | 8017 ft | 173 kts | 199° |
| 2026-04-28 11:40 | 19.46673 | 121.58818 | 8014 ft | 173 kts | 199° |
| 2026-04-28 11:40 | 19.45541 | 121.58384 | 8014 ft | 173 kts | 199° |
| 2026-04-28 11:41 | 19.44406 | 121.57950 | 8013 ft | 173 kts | 199° |
| 2026-04-28 11:41 | 19.43275 | 121.57515 | 8018 ft | 172 kts | 200° |
| 2026-04-28 11:41 | 19.42157 | 121.57086 | 8013 ft | 170 kts | 199° |
| 2026-04-28 11:41 | 19.41047 | 121.56662 | 8014 ft | 169 kts | 199° |
| 2026-04-28 11:42 | 19.39943 | 121.56241 | 8015 ft | 168 kts | 199° |
| 2026-04-28 11:42 | 19.38839 | 121.55820 | 8017 ft | 168 kts | 199° |
| 2026-04-28 11:42 | 19.37734 | 121.55401 | 8016 ft | 169 kts | 199° |
| 2026-04-28 11:42 | 19.36641 | 121.54984 | 8014 ft | 169 kts | 199° |
| 2026-04-28 11:43 | 19.35538 | 121.54561 | 8017 ft | 169 kts | 200° |
| 2026-04-28 11:43 | 19.34437 | 121.54119 | 8017 ft | 170 kts | 201° |
| 2026-04-28 11:43 | 19.33327 | 121.53682 | 8016 ft | 170 kts | 200° |
| 2026-04-28 11:43 | 19.32212 | 121.53254 | 8016 ft | 171 kts | 200° |
| 2026-04-28 11:44 | 19.31092 | 121.52827 | 8017 ft | 171 kts | 200° |
| 2026-04-28 11:44 | 19.29976 | 121.52401 | 8019 ft | 169 kts | 200° |
| 2026-04-28 11:44 | 19.28867 | 121.51980 | 8019 ft | 170 kts | 201° |
| 2026-04-28 11:44 | 19.27756 | 121.51556 | 8021 ft | 170 kts | 200° |
| 2026-04-28 11:45 | 19.26633 | 121.51125 | 8025 ft | 172 kts | 201° |
| 2026-04-28 11:45 | 19.25462 | 121.50882 | 8022 ft | 174 kts | 182° |
| 2026-04-28 11:45 | 19.24256 | 121.51022 | 8022 ft | 175 kts | 174° |
| 2026-04-28 11:45 | 19.23054 | 121.51191 | 8021 ft | 174 kts | 174° |
| 2026-04-28 11:46 | 19.21848 | 121.51359 | 8020 ft | 175 kts | 173° |
| 2026-04-28 11:46 | 19.20640 | 121.51505 | 8021 ft | 175 kts | 177° |
| 2026-04-28 11:46 | 19.19433 | 121.51647 | 8016 ft | 175 kts | 175° |
| 2026-04-28 11:46 | 19.18226 | 121.51824 | 8016 ft | 175 kts | 175° |
| 2026-04-28 11:47 | 19.17030 | 121.51996 | 8013 ft | 175 kts | 175° |
| 2026-04-28 11:47 | 19.15817 | 121.52166 | 8013 ft | 176 kts | 175° |
| 2026-04-28 11:47 | 19.14604 | 121.52334 | 8014 ft | 176 kts | 175° |
| 2026-04-28 11:47 | 19.13389 | 121.52501 | 8015 ft | 175 kts | 176° |
| 2026-04-28 11:48 | 19.12184 | 121.52668 | 8016 ft | 174 kts | 176° |
| 2026-04-28 11:48 | 19.10985 | 121.52837 | 8015 ft | 174 kts | 175° |
| 2026-04-28 11:48 | 19.09781 | 121.53006 | 8018 ft | 174 kts | 176° |
| 2026-04-28 11:48 | 19.08572 | 121.53173 | 8019 ft | 174 kts | 176° |
| 2026-04-28 11:49 | 19.07373 | 121.53337 | 8016 ft | 174 kts | 176° |
| 2026-04-28 11:49 | 19.06175 | 121.53504 | 8014 ft | 173 kts | 176° |
| 2026-04-28 11:49 | 19.04996 | 121.53671 | 8013 ft | 173 kts | 175° |
| 2026-04-28 11:49 | 19.03802 | 121.53839 | 8013 ft | 173 kts | 176° |
| 2026-04-28 11:50 | 19.02603 | 121.54007 | 8012 ft | 174 kts | 175° |
| 2026-04-28 11:50 | 19.01398 | 121.54176 | 8013 ft | 174 kts | 176° |
| 2026-04-28 11:50 | 19.00198 | 121.54341 | 8012 ft | 174 kts | 176° |
| 2026-04-28 11:50 | 18.98996 | 121.54508 | 8010 ft | 175 kts | 174° |
| 2026-04-28 11:51 | 18.97788 | 121.54677 | 8009 ft | 175 kts | 175° |
| 2026-04-28 11:51 | 18.96575 | 121.54844 | 8011 ft | 174 kts | 176° |
| 2026-04-28 11:51 | 18.95371 | 121.55010 | 8012 ft | 174 kts | 175° |
| 2026-04-28 11:51 | 18.94182 | 121.55178 | 8011 ft | 175 kts | 175° |
| 2026-04-28 11:52 | 18.92978 | 121.55343 | 8016 ft | 173 kts | 176° |
| 2026-04-28 11:52 | 18.91781 | 121.55511 | 8016 ft | 173 kts | 175° |
| 2026-04-28 11:52 | 18.90585 | 121.55682 | 8016 ft | 174 kts | 175° |
| 2026-04-28 11:52 | 18.89382 | 121.55845 | 8014 ft | 174 kts | 175° |
| 2026-04-28 11:53 | 18.88179 | 121.56012 | 8010 ft | 174 kts | 175° |
| 2026-04-28 11:53 | 18.86984 | 121.56178 | 8009 ft | 173 kts | 175° |
| 2026-04-28 11:53 | 18.85796 | 121.56343 | 8009 ft | 172 kts | 175° |
| 2026-04-28 11:53 | 18.84619 | 121.56507 | 8010 ft | 173 kts | 174° |
| 2026-04-28 11:54 | 18.83420 | 121.56675 | 8015 ft | 174 kts | 174° |
| 2026-04-28 11:54 | 18.82217 | 121.56843 | 8018 ft | 175 kts | 175° |
| 2026-04-28 11:54 | 18.81011 | 121.57008 | 8010 ft | 174 kts | 174° |
| 2026-04-28 11:54 | 18.79807 | 121.57177 | 8010 ft | 174 kts | 175° |
| 2026-04-28 11:55 | 18.78600 | 121.57346 | 8009 ft | 175 kts | 174° |
| 2026-04-28 11:55 | 18.77388 | 121.57514 | 8008 ft | 176 kts | 174° |
| 2026-04-28 11:55 | 18.76169 | 121.57682 | 8009 ft | 176 kts | 174° |
| 2026-04-28 11:55 | 18.74951 | 121.57848 | 8008 ft | 176 kts | 174° |
| 2026-04-28 11:56 | 18.73739 | 121.58016 | 8012 ft | 175 kts | 175° |
| 2026-04-28 11:56 | 18.72533 | 121.58183 | 8011 ft | 174 kts | 175° |
| 2026-04-28 11:56 | 18.71342 | 121.58350 | 8009 ft | 175 kts | 174° |
| 2026-04-28 11:56 | 18.70134 | 121.58519 | 8010 ft | 175 kts | 175° |
| 2026-04-28 11:57 | 18.68929 | 121.58684 | 8010 ft | 174 kts | 175° |
| 2026-04-28 11:57 | 18.67729 | 121.58853 | 8011 ft | 174 kts | 174° |
| 2026-04-28 11:57 | 18.66529 | 121.59019 | 8011 ft | 173 kts | 175° |
| 2026-04-28 11:57 | 18.65335 | 121.59184 | 8011 ft | 173 kts | 175° |
| 2026-04-28 11:58 | 18.64141 | 121.59351 | 8009 ft | 174 kts | 174° |
| 2026-04-28 11:58 | 18.62936 | 121.59520 | 8010 ft | 175 kts | 174° |
| 2026-04-28 11:58 | 18.61729 | 121.59684 | 8010 ft | 174 kts | 175° |
| 2026-04-28 11:58 | 18.60529 | 121.59849 | 8013 ft | 174 kts | 174° |
| 2026-04-28 11:59 | 18.59332 | 121.60016 | 8013 ft | 175 kts | 175° |
| 2026-04-28 11:59 | 18.58123 | 121.60184 | 8012 ft | 176 kts | 174° |
| 2026-04-28 11:59 | 18.56908 | 121.60352 | 8014 ft | 176 kts | 174° |
| 2026-04-28 11:59 | 18.55691 | 121.60521 | 8013 ft | 176 kts | 174° |
| 2026-04-28 12:00 | 18.54479 | 121.60687 | 8018 ft | 175 kts | 175° |
| 2026-04-28 12:00 | 18.53272 | 121.60853 | 8017 ft | 174 kts | 175° |
| 2026-04-28 12:00 | 18.52071 | 121.61020 | 8016 ft | 174 kts | 174° |
| 2026-04-28 12:00 | 18.50866 | 121.61189 | 8016 ft | 175 kts | 175° |
| 2026-04-28 12:01 | 18.49658 | 121.61356 | 8017 ft | 175 kts | 175° |
| 2026-04-28 12:01 | 18.48453 | 121.61521 | 8016 ft | 174 kts | 175° |
| 2026-04-28 12:01 | 18.47254 | 121.61687 | 8015 ft | 174 kts | 175° |
| 2026-04-28 12:01 | 18.46054 | 121.61853 | 8013 ft | 174 kts | 174° |
| 2026-04-28 12:02 | 18.44854 | 121.62020 | 8017 ft | 174 kts | 175° |
| 2026-04-28 12:02 | 18.43669 | 121.62185 | 8015 ft | 174 kts | 174° |
| 2026-04-28 12:02 | 18.42461 | 121.62353 | 8016 ft | 175 kts | 174° |
| 2026-04-28 12:02 | 18.41254 | 121.62517 | 8016 ft | 175 kts | 175° |
| 2026-04-28 12:03 | 18.40051 | 121.62682 | 8013 ft | 174 kts | 174° |
| 2026-04-28 12:03 | 18.38844 | 121.62856 | 8013 ft | 175 kts | 172° |
| 2026-04-28 12:03 | 18.37650 | 121.63092 | 8011 ft | 174 kts | 169° |
| 2026-04-28 12:03 | 18.36459 | 121.63282 | 8012 ft | 173 kts | 172° |
| 2026-04-28 12:04 | 18.35263 | 121.63439 | 8016 ft | 173 kts | 172° |
| 2026-04-28 12:04 | 18.34072 | 121.63594 | 8022 ft | 172 kts | 176° |
| 2026-04-28 12:04 | 18.32881 | 121.63716 | 8025 ft | 172 kts | 175° |
| 2026-04-28 12:04 | 18.31685 | 121.63865 | 8026 ft | 174 kts | 174° |
| 2026-04-28 12:05 | 18.30477 | 121.64028 | 8026 ft | 175 kts | 174° |
| 2026-04-28 12:05 | 18.29269 | 121.64192 | 8026 ft | 175 kts | 174° |
| 2026-04-28 12:05 | 18.28082 | 121.64355 | 8027 ft | 174 kts | 174° |
| 2026-04-28 12:05 | 18.26881 | 121.64522 | 8028 ft | 173 kts | 174° |
| 2026-04-28 12:06 | 18.26071 | 121.64633 | 8026 ft | 173 kts | 174° |
| 2026-04-28 12:06 | 18.24877 | 121.64799 | 8024 ft | 173 kts | 174° |
| 2026-04-28 12:06 | 18.23292 | 121.65025 | 8025 ft | 174 kts | 173° |
| 2026-04-28 12:06 | 18.22092 | 121.65188 | 8027 ft | 174 kts | 174° |
| 2026-04-28 12:07 | 18.20885 | 121.65353 | 8029 ft | 175 kts | 173° |
| 2026-04-28 12:07 | 18.19680 | 121.65519 | 8030 ft | 175 kts | 173° |
| 2026-04-28 12:07 | 18.18472 | 121.65686 | 8030 ft | 175 kts | 173° |
| 2026-04-28 12:07 | 18.17244 | 121.65852 | 7867 ft | 178 kts | 174° |
| 2026-04-28 12:08 | 18.16024 | 121.66014 | 7636 ft | 176 kts | 174° |
| 2026-04-28 12:08 | 18.14812 | 121.66180 | 7403 ft | 175 kts | 173° |
| 2026-04-28 12:08 | 18.13614 | 121.66347 | 7173 ft | 172 kts | 173° |
| 2026-04-28 12:08 | 18.12830 | 121.66457 | 7021 ft | 171 kts | 173° |
| 2026-04-28 12:09 | 18.11276 | 121.66673 | 6724 ft | 169 kts | 173° |
| 2026-04-28 12:09 | 18.10105 | 121.66837 | 6496 ft | 170 kts | 173° |
| 2026-04-28 12:09 | 18.08932 | 121.66998 | 6273 ft | 170 kts | 173° |
| 2026-04-28 12:09 | 18.08156 | 121.67103 | 6122 ft | 169 kts | 173° |
| 2026-04-28 12:10 | 18.06983 | 121.67263 | 5888 ft | 169 kts | 173° |
| 2026-04-28 12:10 | 18.05818 | 121.67425 | 5671 ft | 168 kts | 172° |
| 2026-04-28 12:10 | 18.04674 | 121.67582 | 5451 ft | 168 kts | 172° |
| 2026-04-28 12:10 | 18.03511 | 121.67741 | 5227 ft | 169 kts | 172° |
| 2026-04-28 12:11 | 18.02343 | 121.67900 | 5003 ft | 169 kts | 172° |
| 2026-04-28 12:11 | 18.01174 | 121.68059 | 4777 ft | 169 kts | 172° |
| 2026-04-28 12:11 | 18.00005 | 121.68218 | 4548 ft | 169 kts | 172° |
| 2026-04-28 12:11 | 17.98840 | 121.68378 | 4323 ft | 169 kts | 172° |
| 2026-04-28 12:12 | 17.97669 | 121.68538 | 4107 ft | 169 kts | 173° |
| 2026-04-28 12:12 | 17.96505 | 121.68696 | 3877 ft | 169 kts | 173° |
| 2026-04-28 12:12 | 17.95344 | 121.68856 | 3666 ft | 167 kts | 173° |
| 2026-04-28 12:12 | 17.94200 | 121.69015 | 3468 ft | 163 kts | 172° |
| 2026-04-28 12:13 | 17.93100 | 121.69182 | 3327 ft | 160 kts | 171° |
| 2026-04-28 12:13 | 17.92002 | 121.69348 | 3176 ft | 158 kts | 171° |
| 2026-04-28 12:13 | 17.91907 | 121.69362 | 3167 ft | 158 kts | 171° |
| 2026-04-28 12:14 | 17.91315 | 121.69452 | 3093 ft | 158 kts | 171° |
| 2026-04-28 12:14 | 17.90226 | 121.69610 | 2948 ft | 159 kts | 172° |
| 2026-04-28 12:14 | 17.89137 | 121.69758 | 2803 ft | 157 kts | 173° |
| 2026-04-28 12:14 | 17.88063 | 121.69900 | 2663 ft | 154 kts | 173° |
| 2026-04-28 12:15 | 17.87003 | 121.70054 | 2522 ft | 154 kts | 172° |
| 2026-04-28 12:15 | 17.85945 | 121.70211 | 2383 ft | 153 kts | 171° |
| 2026-04-28 12:15 | 17.84894 | 121.70368 | 2249 ft | 152 kts | 171° |
| 2026-04-28 12:15 | 17.83839 | 121.70524 | 2110 ft | 154 kts | 172° |
| 2026-04-28 12:16 | 17.82791 | 121.70672 | 2053 ft | 149 kts | 172° |
| 2026-04-28 12:16 | 17.81799 | 121.70826 | 2051 ft | 144 kts | 170° |
| 2026-04-28 12:16 | 17.80831 | 121.70980 | 2048 ft | 142 kts | 170° |
| 2026-04-28 12:16 | 17.79855 | 121.71128 | 2048 ft | 142 kts | 170° |
| 2026-04-28 12:17 | 17.78874 | 121.71264 | 2049 ft | 143 kts | 173° |
| 2026-04-28 12:17 | 17.77881 | 121.71392 | 2046 ft | 144 kts | 173° |
| 2026-04-28 12:17 | 17.76898 | 121.71529 | 2045 ft | 141 kts | 171° |
| 2026-04-28 12:17 | 17.75931 | 121.71670 | 2049 ft | 140 kts | 171° |
| 2026-04-28 12:18 | 17.74960 | 121.71809 | 1926 ft | 137 kts | 171° |
| 2026-04-28 12:18 | 17.74057 | 121.71955 | 1772 ft | 129 kts | 169° |
| 2026-04-28 12:18 | 17.73191 | 121.72094 | 1606 ft | 126 kts | 168° |
| 2026-04-28 12:18 | 17.72347 | 121.72225 | 1448 ft | 114 kts | 166° |
| 2026-04-28 12:19 | 17.71537 | 121.72366 | 1293 ft | 120 kts | 168° |
| 2026-04-28 12:19 | 17.70705 | 121.72481 | 1084 ft | 122 kts | 171° |
| 2026-04-28 12:19 | 17.69893 | 121.72556 | 974 ft | 114 kts | 165° |
| 2026-04-28 12:19 | 17.69150 | 121.72713 | 844 ft | 101 kts | 160° |
| 2026-04-28 12:20 | 17.68492 | 121.72823 | 718 ft | 90 kts | 167° |
| 2026-04-28 12:20 | 17.67886 | 121.72854 | 628 ft | 85 kts | 171° |
| 2026-04-28 12:20 | 17.67283 | 121.72906 | 506 ft | 89 kts | 169° |
| 2026-04-28 12:20 | 17.66670 | 121.72980 | 426 ft | 88 kts | 161° |
| 2026-04-28 12:21 | 17.66051 | 121.73091 | 302 ft | 91 kts | 167° |
| 2026-04-28 12:21 | 17.65981 | 121.73098 | 286 ft | 91 kts | 168° |
| 2026-04-28 12:21 | 17.65409 | 121.73170 | 152 ft | 89 kts | 156° |
| 2026-04-28 12:21 | 17.64847 | 121.73256 | 90 ft | 68 kts | 181° |
| 2026-04-28 12:22 | 17.64555 | 121.73283 | 91 ft | 21 kts | 168° |
| 2026-04-28 12:22 | 17.64389 | 121.73321 | 91 ft | 17 kts | 121° |
| 2026-04-28 12:22 | 17.64335 | 121.73415 | 91 ft | 5 kts | 88° |
| 2026-04-28 12:22 | 17.64355 | 121.73444 | 93 ft | 10 kts | 356° |
| 2026-04-28 12:23 | 17.64382 | 121.73483 | 93 ft | 1 kts | 92° |
| 2026-04-28 12:23 | 17.64382 | 121.73485 | 92 ft | 0 kts | 90° |
| 2026-04-28 12:23 | 17.65145 | 121.73209 | 114 ft | 84 kts | 158° |